Time;durP1;ratioP1;P1;durP2;ratioP2;P2;SDS_P1;SDS_P2;PMS_P1;PMS_P2;Temp;Humidity;BMP_temperature;BMP_pressure;BME280_temperature;BME280_humidity;BME280_pressure;Samples;Min_cycle;Max_cycle;Signal;HPM_P1;HPM_P2
2023/08/20 00:01:26;;;;;;;11.48;5.70;;;25.40;58.80;;;;;;5055015;28;20049;-58
2023/08/20 00:03:56;;;;;;;6.28;5.30;;;25.30;58.70;;;;;;5056904;28;20413;-58
2023/08/20 00:06:24;;;;;;;8.95;5.55;;;25.30;58.70;;;;;;5058349;28;20052;-57
2023/08/20 00:08:51;;;;;;;12.05;5.93;;;25.30;58.70;;;;;;5058525;28;20044;-57
2023/08/20 00:11:19;;;;;;;7.63;5.65;;;25.30;58.70;;;;;;5056751;28;20052;-60
2023/08/20 00:13:46;;;;;;;7.47;6.18;;;25.20;58.70;;;;;;5058068;28;20063;-58
2023/08/20 00:16:14;;;;;;;6.68;5.75;;;25.20;58.70;;;;;;5057913;28;20051;-58
2023/08/20 00:18:42;;;;;;;7.10;5.97;;;25.20;58.60;;;;;;5059547;28;20052;-57
2023/08/20 00:21:11;;;;;;;8.23;6.28;;;25.20;58.60;;;;;;5052741;28;20060;-58
2023/08/20 00:23:39;;;;;;;6.65;5.95;;;25.20;58.70;;;;;;5058747;28;20049;-59
2023/08/20 00:26:07;;;;;;;7.00;5.85;;;25.10;58.60;;;;;;5058607;28;20056;-58
2023/08/20 00:28:34;;;;;;;7.43;6.10;;;25.10;58.70;;;;;;5057204;28;20056;-58
2023/08/20 00:31:02;;;;;;;9.20;6.38;;;25.10;58.70;;;;;;5054660;28;20067;-58
2023/08/20 00:33:29;;;;;;;6.88;5.72;;;25.10;58.70;;;;;;5059368;28;20385;-59
2023/08/20 00:35:56;;;;;;;9.00;6.25;;;25.00;58.70;;;;;;5058394;28;20057;-58
2023/08/20 00:38:25;;;;;;;9.30;7.30;;;25.00;58.70;;;;;;5057241;28;20048;-57
2023/08/20 00:40:52;;;;;;;12.30;7.80;;;25.00;58.90;;;;;;5053789;28;20056;-57
2023/08/20 00:43:19;;;;;;;12.18;6.93;;;25.00;58.90;;;;;;5057325;28;20405;-58
2023/08/20 00:45:47;;;;;;;11.63;6.43;;;24.90;58.90;;;;;;5058055;28;20892;-60
2023/08/20 00:48:14;;;;;;;8.23;6.25;;;24.90;58.90;;;;;;5059106;28;20059;-60
2023/08/20 00:50:42;;;;;;;10.10;7.15;;;24.80;59.40;;;;;;5053063;28;20052;-60
2023/08/20 00:53:12;;;;;;;11.15;6.45;;;24.80;59.00;;;;;;5057917;28;20052;-61
2023/08/20 00:55:43;;;;;;;6.68;5.72;;;24.80;59.10;;;;;;5056890;28;20048;-60
2023/08/20 00:58:11;;;;;;;8.40;6.70;;;24.80;59.10;;;;;;5055220;28;20057;-61
2023/08/20 01:00:42;;;;;;;9.70;6.80;;;24.70;59.10;;;;;;5054434;23;20472;-88
2023/08/20 01:03:09;;;;;;;11.40;7.70;;;24.70;59.20;;;;;;5018904;28;20061;-87
2023/08/20 01:05:44;;;;;;;12.63;8.20;;;24.70;59.30;;;;;;5018920;28;20060;-87
2023/08/20 01:08:27;;;;;;;13.00;7.18;;;24.60;59.40;;;;;;5017759;28;20400;-87
2023/08/20 01:11:02;;;;;;;8.77;7.00;;;24.50;59.50;;;;;;5022882;28;20056;-89
2023/08/20 01:13:29;;;;;;;9.20;6.60;;;24.50;59.60;;;;;;5021127;28;20052;-90
2023/08/20 01:15:57;;;;;;;7.03;6.13;;;24.50;59.60;;;;;;5021906;28;20054;-88
2023/08/20 01:18:25;;;;;;;9.60;6.35;;;24.50;59.60;;;;;;5022101;28;20823;-89
2023/08/20 01:20:57;;;;;;;9.32;6.47;;;24.50;59.70;;;;;;5022733;28;20407;-89
2023/08/20 01:24:02;;;;;;;23.85;6.80;;;24.40;59.60;;;;;;5023229;28;20562;-88
2023/08/20 01:27:01;;;;;;;8.25;6.72;;;24.40;59.70;;;;;;5021822;28;20057;-89
2023/08/20 01:29:31;;;;;;;8.15;6.00;;;24.40;59.70;;;;;;5023017;28;20409;-88
2023/08/20 01:31:59;;;;;;;8.57;6.38;;;24.40;59.70;;;;;;5022490;28;20056;-88
2023/08/20 01:34:26;;;;;;;9.75;6.60;;;24.30;59.70;;;;;;5025856;28;20052;-88
2023/08/20 01:36:54;;;;;;;9.55;6.45;;;24.30;59.80;;;;;;5021799;28;20049;-88
2023/08/20 01:39:21;;;;;;;9.93;7.03;;;24.30;59.90;;;;;;5024365;28;20088;-88
2023/08/20 01:41:49;;;;;;;7.43;6.18;;;24.30;59.90;;;;;;5020397;28;20508;-87
2023/08/20 01:44:16;;;;;;;7.70;6.25;;;24.30;59.90;;;;;;5022926;28;20049;-88
2023/08/20 01:46:45;;;;;;;7.47;6.65;;;24.30;59.90;;;;;;5021359;28;20068;-89
2023/08/20 01:49:12;;;;;;;8.50;6.57;;;24.30;59.90;;;;;;5022391;28;20409;-88
2023/08/20 01:51:40;;;;;;;8.88;6.75;;;24.30;60.00;;;;;;5022965;28;20503;-89
2023/08/20 01:54:07;;;;;;;10.52;7.25;;;24.30;60.00;;;;;;5020657;28;20045;-89
2023/08/20 01:56:35;;;;;;;7.90;6.13;;;24.20;59.90;;;;;;5026143;28;20085;-88
2023/08/20 01:59:03;;;;;;;9.57;6.15;;;24.20;59.90;;;;;;5023108;28;20424;-88
2023/08/20 02:01:30;;;;;;;8.48;6.43;;;24.20;59.90;;;;;;5022797;28;20065;-88
2023/08/20 02:03:59;;;;;;;10.55;7.03;;;24.20;59.80;;;;;;5024255;28;20050;-88
2023/08/20 02:06:26;;;;;;;11.68;7.68;;;24.20;59.80;;;;;;5023044;28;20056;-88
2023/08/20 02:08:53;;;;;;;11.13;7.95;;;24.20;59.80;;;;;;5022751;28;20057;-90
2023/08/20 02:11:21;;;;;;;12.23;8.52;;;24.20;59.90;;;;;;5022728;28;20053;-90
2023/08/20 02:13:48;;;;;;;11.88;8.25;;;24.10;60.10;;;;;;5021001;28;20053;-90
2023/08/20 02:16:16;;;;;;;9.93;7.75;;;24.10;60.30;;;;;;5022326;28;20053;-89
2023/08/20 02:18:44;;;;;;;11.45;7.85;;;24.10;60.60;;;;;;5022748;28;20061;-90
2023/08/20 02:21:13;;;;;;;11.15;7.15;;;24.00;60.80;;;;;;5022519;28;20050;-90
2023/08/20 02:23:40;;;;;;;9.27;6.82;;;24.00;60.90;;;;;;5022830;28;20057;-89
2023/08/20 02:26:07;;;;;;;11.88;7.75;;;24.00;61.00;;;;;;5023253;28;20493;-89
2023/08/20 02:28:38;;;;;;;13.52;7.65;;;24.00;61.00;;;;;;5025332;28;20052;-89
2023/08/20 02:31:06;;;;;;;13.85;8.38;;;24.00;60.80;;;;;;5023838;28;20053;-91
2023/08/20 02:33:33;;;;;;;9.90;7.10;;;23.90;60.80;;;;;;5021904;28;20417;-91
2023/08/20 02:36:03;;;;;;;11.90;8.10;;;23.80;60.80;;;;;;5021986;28;20536;-89
2023/08/20 02:38:32;;;;;;;10.18;7.43;;;23.70;60.90;;;;;;5022936;28;20061;-90
2023/08/20 02:40:59;;;;;;;9.77;7.35;;;23.70;61.10;;;;;;5023265;28;20057;-89
2023/08/20 02:43:27;;;;;;;10.77;8.25;;;23.60;61.20;;;;;;5022467;28;20668;-90
2023/08/20 02:45:54;;;;;;;11.88;7.55;;;23.60;61.60;;;;;;5023560;28;20065;-89
2023/08/20 02:48:26;;;;;;;13.82;7.40;;;23.50;61.80;;;;;;5022248;28;20053;-90
2023/08/20 02:50:54;;;;;;;9.75;6.82;;;23.50;62.00;;;;;;5022604;28;20049;-89
2023/08/20 02:53:21;;;;;;;9.02;6.50;;;23.40;62.20;;;;;;5023169;28;20062;-89
2023/08/20 02:55:50;;;;;;;10.32;7.20;;;23.40;62.40;;;;;;5024141;28;20080;-89
2023/08/20 02:58:17;;;;;;;9.52;6.97;;;23.40;62.60;;;;;;5022241;28;20424;-90
2023/08/20 03:00:45;;;;;;;9.93;7.05;;;23.40;62.60;;;;;;5028260;28;20060;-90
2023/08/20 03:03:13;;;;;;;12.07;7.38;;;23.30;62.60;;;;;;5023270;28;20053;-89
2023/08/20 03:05:40;;;;;;;8.68;7.10;;;23.30;62.60;;;;;;5022667;28;20058;-89
2023/08/20 03:08:09;;;;;;;9.70;6.95;;;23.30;62.50;;;;;;5022711;28;20447;-89
2023/08/20 03:10:37;;;;;;;9.32;7.30;;;23.30;62.50;;;;;;5022857;28;20057;-89
2023/08/20 03:13:06;;;;;;;9.00;6.45;;;23.30;62.50;;;;;;5026733;28;20056;-89
2023/08/20 03:15:33;;;;;;;10.80;6.60;;;23.30;62.50;;;;;;5022725;28;20080;-89
2023/08/20 03:18:00;;;;;;;8.35;6.43;;;23.30;62.40;;;;;;5022285;28;20515;-90
2023/08/20 03:20:30;;;;;;;12.25;7.68;;;23.30;62.40;;;;;;5022580;28;20060;-89
2023/08/20 03:22:58;;;;;;;12.48;8.57;;;23.30;62.60;;;;;;5022710;28;20477;-88
2023/08/20 03:25:25;;;;;;;11.88;8.15;;;23.20;62.50;;;;;;5022350;28;20052;-88
2023/08/20 03:27:53;;;;;;;10.70;8.05;;;23.20;62.40;;;;;;5019902;28;20052;-87
2023/08/20 03:30:22;;;;;;;13.75;8.07;;;23.10;62.60;;;;;;5022600;28;20385;-87
2023/08/20 03:32:49;;;;;;;9.02;7.57;;;23.10;62.90;;;;;;5022926;28;20055;-87
2023/08/20 03:35:17;;;;;;;8.68;7.03;;;23.00;63.00;;;;;;5022429;28;20071;-89
2023/08/20 03:37:44;;;;;;;10.32;7.55;;;23.00;63.20;;;;;;5028881;28;20492;-88
2023/08/20 03:40:12;;;;;;;10.82;8.18;;;23.00;63.30;;;;;;5021928;28;20061;-88
2023/08/20 03:42:39;;;;;;;10.15;7.72;;;23.00;63.40;;;;;;5021731;28;20053;-88
2023/08/20 03:45:08;;;;;;;10.25;7.65;;;23.00;63.40;;;;;;5022873;28;20045;-89
2023/08/20 03:47:37;;;;;;;9.77;7.25;;;23.00;63.30;;;;;;5021431;28;20067;-89
2023/08/20 03:50:04;;;;;;;9.32;7.30;;;23.00;63.40;;;;;;5021867;28;20049;-88
2023/08/20 03:52:32;;;;;;;8.50;7.07;;;23.00;63.50;;;;;;5023414;28;20497;-89
2023/08/20 03:54:59;;;;;;;8.15;6.93;;;23.00;63.60;;;;;;5023092;28;20402;-87
2023/08/20 03:57:26;;;;;;;8.18;6.75;;;22.90;63.50;;;;;;5021198;28;20061;-87
2023/08/20 03:59:54;;;;;;;6.85;6.15;;;23.00;63.50;;;;;;5022317;28;20068;-88
2023/08/20 04:02:21;;;;;;;9.65;7.20;;;23.00;63.50;;;;;;5023502;28;20057;-88
2023/08/20 04:04:50;;;;;;;9.70;6.72;;;23.00;63.40;;;;;;5024847;28;20472;-87
2023/08/20 04:07:18;;;;;;;9.55;6.45;;;23.00;63.40;;;;;;5023802;28;20061;-87
2023/08/20 04:09:46;;;;;;;7.93;6.72;;;23.00;63.30;;;;;;5024495;28;20053;-87
2023/08/20 04:12:13;;;;;;;10.18;7.72;;;23.00;63.40;;;;;;5020318;28;20064;-89
2023/08/20 04:14:40;;;;;;;8.43;7.32;;;23.00;63.60;;;;;;5019391;28;20508;-90
2023/08/20 04:17:08;;;;;;;10.38;7.07;;;23.00;63.60;;;;;;5021572;28;20061;-89
2023/08/20 04:19:35;;;;;;;9.25;7.53;;;23.00;63.70;;;;;;5021335;28;20083;-87
2023/08/20 04:22:04;;;;;;;11.05;8.07;;;23.00;63.70;;;;;;5021539;28;20056;-89
2023/08/20 04:24:31;;;;;;;9.35;7.32;;;23.00;63.60;;;;;;5021436;28;20056;-89
2023/08/20 04:26:59;;;;;;;10.02;7.22;;;23.00;63.50;;;;;;5019430;28;20057;-88
2023/08/20 04:29:27;;;;;;;7.00;6.30;;;23.00;63.40;;;;;;5021575;28;20417;-89
2023/08/20 04:31:54;;;;;;;8.82;6.38;;;23.00;63.50;;;;;;5020090;28;20053;-87
2023/08/20 04:34:22;;;;;;;7.00;6.28;;;23.00;63.60;;;;;;5015022;28;20572;-88
2023/08/20 04:36:49;;;;;;;9.73;6.68;;;23.00;63.70;;;;;;5012899;28;20064;-87
2023/08/20 04:39:18;;;;;;;9.25;6.35;;;23.00;63.80;;;;;;5018509;28;20072;-87
2023/08/20 04:41:45;;;;;;;7.20;6.28;;;23.00;63.80;;;;;;5014155;28;20632;-86
2023/08/20 04:44:13;;;;;;;7.50;6.25;;;23.00;63.80;;;;;;5023743;28;20049;-86
2023/08/20 04:46:40;;;;;;;9.75;7.60;;;23.00;63.80;;;;;;5018168;28;20053;-87
2023/08/20 04:49:08;;;;;;;9.30;7.40;;;23.00;63.80;;;;;;5016324;28;20436;-86
2023/08/20 04:51:35;;;;;;;9.45;7.45;;;23.10;63.80;;;;;;5022475;28;20500;-86
2023/08/20 04:54:04;;;;;;;8.75;6.57;;;23.10;63.80;;;;;;5020293;28;20424;-88
2023/08/20 04:56:32;;;;;;;8.77;6.88;;;23.10;63.80;;;;;;5024975;28;20049;-86
2023/08/20 04:59:00;;;;;;;11.02;6.68;;;23.10;63.90;;;;;;5020281;28;20049;-86
2023/08/20 05:01:27;;;;;;;9.85;7.15;;;23.10;63.90;;;;;;5018556;28;20066;-86
2023/08/20 05:03:54;;;;;;;7.90;6.72;;;23.10;64.00;;;;;;5021654;28;20054;-87
2023/08/20 05:06:25;;;;;;;7.85;6.60;;;23.10;63.90;;;;;;5017794;28;20053;-87
2023/08/20 05:08:52;;;;;;;8.85;7.85;;;23.10;64.00;;;;;;5020650;28;20053;-88
2023/08/20 05:11:19;;;;;;;13.77;7.80;;;23.20;64.10;;;;;;5026826;28;20053;-87
2023/08/20 05:13:48;;;;;;;9.07;6.90;;;23.20;64.10;;;;;;5018208;28;20046;-86
2023/08/20 05:16:16;;;;;;;8.82;5.95;;;23.20;64.10;;;;;;5026177;28;20053;-87
2023/08/20 05:18:43;;;;;;;7.18;5.85;;;23.20;64.10;;;;;;5020853;28;20048;-86
2023/08/20 05:21:13;;;;;;;7.45;6.00;;;23.20;64.00;;;;;;5020628;28;20485;-88
2023/08/20 05:23:41;;;;;;;9.15;6.28;;;23.30;64.10;;;;;;5020043;28;20061;-87
2023/08/20 05:26:08;;;;;;;14.13;7.70;;;23.30;64.00;;;;;;5020737;28;20053;-87
2023/08/20 05:28:36;;;;;;;13.95;9.05;;;23.30;63.90;;;;;;5020658;28;20107;-87
2023/08/20 05:31:04;;;;;;;14.00;9.43;;;23.30;63.80;;;;;;5023110;28;20046;-88
2023/08/20 05:33:32;;;;;;;14.10;10.07;;;23.30;63.70;;;;;;5023563;28;20409;-88
2023/08/20 05:36:00;;;;;;;15.93;11.27;;;23.40;63.70;;;;;;5020489;28;20041;-88
2023/08/20 05:38:28;;;;;;;14.77;11.07;;;23.30;63.70;;;;;;5019444;28;20053;-89
2023/08/20 05:40:55;;;;;;;14.50;9.70;;;23.30;63.80;;;;;;5020752;28;20053;-90
2023/08/20 05:43:22;;;;;;;12.27;9.35;;;23.40;64.00;;;;;;5021006;28;20865;-90
2023/08/20 05:45:49;;;;;;;17.30;10.30;;;23.30;64.10;;;;;;5021682;28;20057;-89
2023/08/20 05:48:18;;;;;;;12.05;9.40;;;23.30;64.20;;;;;;5022485;28;20068;-89
2023/08/20 05:50:46;;;;;;;13.35;9.65;;;23.30;64.40;;;;;;5020929;28;20631;-89
2023/08/20 05:53:14;;;;;;;12.85;9.43;;;23.40;64.70;;;;;;5020563;28;20052;-90
2023/08/20 05:55:45;;;;;;;18.23;10.20;;;23.40;64.90;;;;;;5023365;28;20053;-92
2023/08/20 05:58:14;;;;;;;10.93;8.90;;;23.40;65.40;;;;;;5022514;28;20054;-91
2023/08/20 06:00:42;;;;;;;10.05;8.23;;;23.40;65.70;;;;;;5024089;28;20064;-91
2023/08/20 06:03:09;;;;;;;9.32;7.90;;;23.40;65.80;;;;;;5023312;28;20053;-91
2023/08/20 06:05:38;;;;;;;20.20;9.10;;;23.40;65.80;;;;;;5024362;28;20052;-91
2023/08/20 06:08:06;;;;;;;11.98;8.23;;;23.50;66.80;;;;;;5030825;28;20061;-90
2023/08/20 06:10:34;;;;;;;12.30;8.10;;;23.50;66.10;;;;;;5022432;28;20057;-93
2023/08/20 06:13:01;;;;;;;13.25;8.82;;;23.50;66.30;;;;;;5021208;28;20049;-89
2023/08/20 06:15:29;;;;;;;12.70;8.65;;;23.50;66.40;;;;;;5021935;28;20401;-91
2023/08/20 06:17:56;;;;;;;12.52;8.35;;;23.50;66.50;;;;;;5019169;28;20054;-90
2023/08/20 06:20:24;;;;;;;28.27;11.30;;;23.60;66.70;;;;;;5019720;28;20065;-91
2023/08/20 06:22:52;;;;;;;15.23;10.35;;;23.60;67.20;;;;;;5022406;28;20053;-90
2023/08/20 06:25:20;;;;;;;15.15;9.68;;;23.60;67.40;;;;;;5021080;28;20061;-90
2023/08/20 06:27:47;;;;;;;14.70;9.55;;;23.60;67.30;;;;;;5020325;28;20500;-91
2023/08/20 06:30:15;;;;;;;16.17;10.40;;;23.60;67.50;;;;;;5022654;28;20061;-91
2023/08/20 06:32:45;;;;;;;14.75;10.93;;;23.60;67.60;;;;;;5022640;28;20049;-91
2023/08/20 06:35:12;;;;;;;18.98;10.82;;;23.60;67.90;;;;;;5021504;28;20064;-91
2023/08/20 06:37:41;;;;;;;14.80;10.25;;;23.60;68.10;;;;;;5020132;28;20394;-90
2023/08/20 06:40:11;;;;;;;14.50;10.40;;;23.60;68.40;;;;;;5023274;28;20654;-92
2023/08/20 06:42:38;;;;;;;16.60;11.57;;;23.60;68.70;;;;;;5018136;28;20501;-91
2023/08/20 06:45:07;;;;;;;16.20;10.93;;;23.70;69.10;;;;;;5018623;28;20511;-91
2023/08/20 06:47:58;;;;;;;17.40;12.60;;;23.60;69.40;;;;;;5019839;28;20057;-91
2023/08/20 06:50:28;;;;;;;16.63;12.95;;;23.60;69.90;;;;;;5017518;28;20056;-90
2023/08/20 06:52:55;;;;;;;15.20;11.95;;;23.60;70.20;;;;;;5020259;28;20064;-87
2023/08/20 06:55:25;;;;;;;13.35;11.63;;;23.70;70.50;;;;;;5018435;28;20065;-90
2023/08/20 06:57:53;;;;;;;13.68;11.15;;;23.60;70.60;;;;;;5016241;28;20064;-88
2023/08/20 07:00:21;;;;;;;16.83;12.10;;;23.60;70.80;;;;;;5016569;28;20475;-89
2023/08/20 07:02:49;;;;;;;19.23;14.13;;;23.70;71.40;;;;;;5017709;28;20085;-88
2023/08/20 07:05:17;;;;;;;18.95;13.15;;;23.70;71.60;;;;;;5018637;28;20516;-89
2023/08/20 07:07:44;;;;;;;17.70;13.35;;;23.70;71.40;;;;;;5018410;28;20068;-90
2023/08/20 07:10:12;;;;;;;17.67;12.68;;;23.80;71.40;;;;;;5026328;28;20045;-90
2023/08/20 07:12:41;;;;;;;13.77;11.57;;;23.80;71.20;;;;;;5016207;28;20060;-88
2023/08/20 07:15:09;;;;;;;17.08;13.25;;;23.90;71.20;;;;;;5020371;28;20064;-89
2023/08/20 07:17:38;;;;;;;17.00;12.23;;;24.00;71.00;;;;;;5022901;28;20081;-88
2023/08/20 07:20:07;;;;;;;14.35;11.52;;;24.00;70.80;;;;;;5022209;28;20053;-89
2023/08/20 07:22:34;;;;;;;20.42;15.55;;;24.10;70.50;;;;;;5021130;28;20059;-90
2023/08/20 07:25:04;;;;;;;22.45;16.55;;;24.10;70.10;;;;;;5019763;28;20068;-89
2023/08/20 07:27:32;;;;;;;20.02;14.10;;;24.10;69.40;;;;;;5028223;28;20064;-88
2023/08/20 07:30:00;;;;;;;36.65;25.52;;;24.20;69.30;;;;;;5022210;28;20054;-88
2023/08/20 07:32:28;;;;;;;18.02;14.68;;;24.20;69.10;;;;;;5020804;28;20508;-88
2023/08/20 07:34:55;;;;;;;15.85;12.43;;;24.20;69.00;;;;;;5021605;28;20076;-87
2023/08/20 07:37:22;;;;;;;17.95;13.93;;;24.20;68.90;;;;;;5020862;28;20057;-89
2023/08/20 07:39:50;;;;;;;18.65;14.32;;;24.20;69.10;;;;;;5021226;28;20072;-89
2023/08/20 07:42:28;;;;;;;22.23;13.48;;;24.30;69.50;;;;;;5016620;28;20140;-91
2023/08/20 07:44:56;;;;;;;20.73;13.82;;;24.30;69.50;;;;;;5024446;28;20058;-88
2023/08/20 07:47:25;;;;;;;16.27;12.65;;;24.30;69.00;;;;;;5019844;28;20057;-88
2023/08/20 07:49:52;;;;;;;17.65;13.02;;;24.30;69.10;;;;;;5024712;28;20053;-90
2023/08/20 07:52:20;;;;;;;18.63;12.55;;;24.30;69.30;;;;;;5018487;28;20378;-88
2023/08/20 07:54:48;;;;;;;20.38;14.45;;;24.30;69.70;;;;;;5017799;28;20046;-88
2023/08/20 07:57:16;;;;;;;18.85;14.07;;;24.30;69.10;;;;;;5015082;28;20064;-89
2023/08/20 07:59:44;;;;;;;20.05;14.77;;;24.30;68.70;;;;;;5018293;28;20123;-92
2023/08/20 08:02:11;;;;;;;18.92;13.32;;;24.40;68.80;;;;;;5018212;28;20062;-92
2023/08/20 08:04:41;;;;;;;14.93;11.70;;;24.40;68.90;;;;;;5019920;28;20049;-92
2023/08/20 08:07:08;;;;;;;21.05;12.75;;;24.40;69.40;;;;;;5016838;28;20053;-92
2023/08/20 08:09:36;;;;;;;14.60;10.85;;;24.40;69.10;;;;;;5017136;28;20053;-92
2023/08/20 08:12:04;;;;;;;15.20;10.95;;;24.50;68.90;;;;;;5016289;28;20413;-91
2023/08/20 08:14:32;;;;;;;16.85;11.57;;;24.50;68.70;;;;;;5015464;28;20053;-92
2023/08/20 08:16:59;;;;;;;14.18;10.35;;;24.60;68.40;;;;;;5018277;28;20380;-91
2023/08/20 08:19:27;;;;;;;17.42;12.93;;;24.60;68.60;;;;;;5015075;28;20064;-92
2023/08/20 08:21:57;;;;;;;15.50;11.23;;;24.70;67.80;;;;;;5017489;28;20052;-91
2023/08/20 08:24:25;;;;;;;19.98;10.68;;;24.70;67.50;;;;;;5016899;28;20057;-92
2023/08/20 08:26:53;;;;;;;14.02;10.13;;;24.70;67.20;;;;;;5021169;28;20137;-90
2023/08/20 08:29:20;;;;;;;15.43;10.55;;;24.70;66.80;;;;;;5014954;28;20068;-92
2023/08/20 08:31:48;;;;;;;15.38;10.73;;;24.80;66.00;;;;;;5021294;28;20412;-92
2023/08/20 08:34:18;;;;;;;12.30;9.00;;;24.80;66.00;;;;;;5019106;28;20486;-91
2023/08/20 08:36:45;;;;;;;17.90;10.27;;;24.90;66.40;;;;;;5017307;28;20705;-92
2023/08/20 08:39:14;;;;;;;13.40;9.82;;;24.90;66.90;;;;;;5018430;28;20500;-91
2023/08/20 08:41:56;;;;;;;11.52;10.00;;;25.00;67.10;;;;;;5014908;28;20056;-92
2023/08/20 08:44:23;;;;;;;12.43;8.18;;;25.10;67.40;;;;;;5019742;28;20305;-90
2023/08/20 08:46:52;;;;;;;13.75;8.07;;;25.10;67.40;;;;;;5022523;28;20049;-91
2023/08/20 08:49:20;;;;;;;10.05;7.38;;;25.20;66.00;;;;;;5026664;28;20061;-92
2023/08/20 08:51:48;;;;;;;7.53;6.07;;;25.20;63.90;;;;;;5019414;28;20060;-91
2023/08/20 08:54:18;;;;;;;7.25;5.30;;;25.30;62.70;;;;;;5017595;28;20425;-92
2023/08/20 08:56:45;;;;;;;9.38;6.30;;;25.30;62.50;;;;;;5018562;28;20064;-91
2023/08/20 08:59:15;;;;;;;8.88;6.38;;;25.40;63.30;;;;;;5019809;28;20076;-90
2023/08/20 09:02:14;;;;;;;8.00;6.70;;;25.40;62.30;;;;;;5018399;28;20440;-92
2023/08/20 09:04:52;;;;;;;10.32;6.95;;;25.50;61.70;;;;;;5017176;28;20053;-93
2023/08/20 09:07:28;;;;;;;8.60;6.07;;;25.60;61.40;;;;;;5016037;28;20045;-90
2023/08/20 09:10:00;;;;;;;7.72;6.00;;;25.70;61.70;;;;;;5018614;28;20485;-90
2023/08/20 09:12:28;;;;;;;8.50;6.15;;;25.70;61.90;;;;;;5017026;28;20060;-90
2023/08/20 09:15:00;;;;;;;8.23;6.63;;;25.80;61.00;;;;;;5019492;28;20060;-89
2023/08/20 09:17:30;;;;;;;8.30;5.97;;;25.80;59.80;;;;;;5019467;28;21914;-93
2023/08/20 09:19:58;;;;;;;6.93;4.57;;;25.90;59.90;;;;;;5019862;28;20064;-91
2023/08/20 09:22:27;;;;;;;9.57;5.75;;;25.90;60.00;;;;;;5020289;28;20049;-90
2023/08/20 09:24:59;;;;;;;8.00;5.70;;;26.00;60.30;;;;;;5022773;28;20421;-91
2023/08/20 09:27:28;;;;;;;7.63;6.00;;;26.00;59.90;;;;;;5017151;28;20057;-90
2023/08/20 09:29:59;;;;;;;9.80;5.80;;;26.10;59.70;;;;;;5018723;28;20058;-93
2023/08/20 09:32:33;;;;;;;9.43;5.28;;;26.10;59.70;;;;;;5022273;28;20053;-91
2023/08/20 09:35:01;;;;;;;5.60;4.63;;;26.10;59.90;;;;;;5024800;28;20106;-90
2023/08/20 09:37:28;;;;;;;5.78;4.57;;;26.20;60.30;;;;;;5022561;28;20061;-91
2023/08/20 09:40:25;;;;;;;6.70;4.63;;;26.30;60.30;;;;;;5019038;28;20061;-91
2023/08/20 09:42:55;;;;;;;7.60;5.53;;;26.30;60.20;;;;;;5028865;28;20381;-91
2023/08/20 09:45:25;;;;;;;5.93;4.88;;;26.40;59.40;;;;;;5027123;28;20053;-91
2023/08/20 09:47:56;;;;;;;7.45;4.97;;;26.50;59.70;;;;;;5027104;28;20412;-91
2023/08/20 09:50:24;;;;;;;6.93;5.32;;;26.50;59.30;;;;;;5025691;28;20493;-91
2023/08/20 09:52:59;;;;;;;6.53;4.47;;;26.50;59.20;;;;;;5022820;28;20057;-92
2023/08/20 09:55:33;;;;;;;8.90;5.35;;;26.60;58.90;;;;;;5027240;28;20061;-90
2023/08/20 09:58:13;;;;;;;6.18;5.10;;;26.60;57.40;;;;;;5017500;28;20052;-90
2023/08/20 10:00:41;;;;;;;5.95;4.53;;;26.70;57.70;;;;;;5025074;28;20041;-90
2023/08/20 10:03:12;;;;;;;6.70;4.90;;;26.70;58.00;;;;;;5024080;28;20561;-91
2023/08/20 10:05:40;;;;;;;7.25;5.03;;;26.80;58.20;;;;;;5021539;28;20069;-92
2023/08/20 10:08:08;;;;;;;9.32;5.18;;;26.70;58.10;;;;;;5022156;28;20409;-90
2023/08/20 10:10:36;;;;;;;7.32;5.72;;;26.80;58.30;;;;;;5023104;28;20493;-92
2023/08/20 10:13:08;;;;;;;7.55;5.53;;;26.90;57.80;;;;;;5022142;28;20057;-90
2023/08/20 10:15:37;;;;;;;6.82;5.30;;;26.90;56.90;;;;;;5022681;28;20417;-90
2023/08/20 10:18:05;;;;;;;8.27;5.25;;;26.90;57.10;;;;;;5023349;28;21315;-90
2023/08/20 10:20:36;;;;;;;7.47;5.45;;;27.00;57.30;;;;;;5023439;28;20416;-87
2023/08/20 10:23:04;;;;;;;9.40;5.82;;;27.00;57.30;;;;;;5024306;28;20587;-88
2023/08/20 10:25:32;;;;;;;5.75;5.15;;;27.10;57.00;;;;;;5023126;28;20056;-88
2023/08/20 10:28:15;;;;;;;5.18;4.65;;;27.20;57.30;;;;;;5022863;28;20414;-87
2023/08/20 10:31:05;;;;;;;6.63;5.22;;;27.20;57.80;;;;;;5021908;28;20049;-88
2023/08/20 10:33:34;;;;;;;8.38;4.55;;;27.30;57.50;;;;;;5024274;28;20053;-87
2023/08/20 10:36:11;;;;;;;6.07;4.80;;;27.40;57.50;;;;;;5030778;28;20058;-87
2023/08/20 10:38:39;;;;;;;7.68;4.75;;;27.40;57.40;;;;;;5024046;28;20046;-88
2023/08/20 10:41:10;;;;;;;6.88;4.47;;;27.40;57.20;;;;;;5022587;28;20048;-87
2023/08/20 10:43:40;;;;;;;7.75;5.03;;;27.50;57.00;;;;;;5022447;28;20049;-88
2023/08/20 10:46:09;;;;;;;5.90;4.60;;;27.60;57.00;;;;;;5023674;28;21494;-88
2023/08/20 10:48:38;;;;;;;6.05;4.28;;;27.60;56.70;;;;;;5029854;28;20046;-88
2023/08/20 10:51:11;;;;;;;8.30;4.80;;;27.60;56.70;;;;;;5024644;28;20060;-87
2023/08/20 10:53:38;;;;;;;6.05;4.65;;;27.60;56.00;;;;;;5023802;28;20057;-86
2023/08/20 10:56:10;;;;;;;6.82;4.95;;;27.60;56.20;;;;;;5023307;28;20054;-88
2023/08/20 10:58:41;;;;;;;7.20;4.65;;;27.70;56.10;;;;;;5021516;28;20414;-88
2023/08/20 11:01:20;;;;;;;5.53;4.30;;;27.70;56.10;;;;;;5026302;28;20065;-87
2023/08/20 11:03:49;;;;;;;6.78;5.05;;;27.80;55.90;;;;;;5030120;28;20060;-86
2023/08/20 11:06:17;;;;;;;5.68;4.70;;;27.70;55.30;;;;;;5023274;28;20115;-88
2023/08/20 11:08:46;;;;;;;7.53;4.65;;;27.80;55.10;;;;;;5023273;28;20045;-88
2023/08/20 11:11:13;;;;;;;9.82;4.97;;;27.80;54.50;;;;;;5021498;28;20053;-86
2023/08/20 11:13:42;;;;;;;6.75;5.03;;;27.80;54.80;;;;;;5023119;28;20065;-87
2023/08/20 11:16:10;;;;;;;5.72;4.32;;;27.90;54.20;;;;;;5023235;28;20060;-87
2023/08/20 11:18:37;;;;;;;5.80;4.63;;;27.90;53.90;;;;;;5023705;28;20053;-88
2023/08/20 11:21:05;;;;;;;5.35;4.40;;;27.90;54.10;;;;;;5022614;28;20057;-87
2023/08/20 11:23:33;;;;;;;5.32;4.40;;;27.90;54.10;;;;;;5023493;28;20412;-88
2023/08/20 11:26:01;;;;;;;6.07;4.93;;;27.90;54.20;;;;;;5020485;28;20497;-88
2023/08/20 11:28:29;;;;;;;10.15;5.05;;;27.90;54.10;;;;;;5019420;28;20057;-89
2023/08/20 11:30:57;;;;;;;8.18;4.35;;;28.00;53.60;;;;;;5022515;28;20050;-88
2023/08/20 11:33:26;;;;;;;7.30;4.80;;;28.00;53.70;;;;;;5022366;28;20056;-87
2023/08/20 11:35:54;;;;;;;6.57;5.20;;;28.00;53.10;;;;;;5021922;28;20057;-87
2023/08/20 11:38:24;;;;;;;5.95;4.38;;;28.00;51.10;;;;;;5023608;28;20140;-89
2023/08/20 11:40:51;;;;;;;7.25;4.75;;;28.00;51.60;;;;;;5021792;28;20057;-88
2023/08/20 11:43:18;;;;;;;7.25;5.30;;;28.10;51.30;;;;;;5019293;28;20656;-89
2023/08/20 11:45:48;;;;;;;7.63;5.03;;;28.10;51.40;;;;;;5022835;28;20045;-88
2023/08/20 11:48:17;;;;;;;7.40;5.65;;;28.10;50.80;;;;;;5021494;28;20052;-88
2023/08/20 11:50:45;;;;;;;5.30;4.43;;;28.20;51.20;;;;;;5022044;28;20382;-86
2023/08/20 11:53:12;;;;;;;7.78;5.47;;;28.20;52.00;;;;;;5021764;28;20053;-87
2023/08/20 11:55:41;;;;;;;8.25;4.97;;;28.20;52.20;;;;;;5021392;28;20057;-87
2023/08/20 11:58:13;;;;;;;8.38;5.53;;;28.30;51.90;;;;;;5019611;28;20044;-87
2023/08/20 12:00:42;;;;;;;6.85;5.22;;;28.30;51.40;;;;;;5020710;28;20053;-88
2023/08/20 12:03:11;;;;;;;5.63;5.03;;;28.30;51.60;;;;;;5023089;28;20057;-87
2023/08/20 12:05:43;;;;;;;7.85;5.30;;;28.30;51.40;;;;;;5020066;28;20072;-88
2023/08/20 12:08:17;;;;;;;8.60;4.93;;;28.40;51.40;;;;;;5021493;28;20049;-86
2023/08/20 12:10:44;;;;;;;8.30;4.80;;;28.40;52.10;;;;;;5021176;28;20046;-87
2023/08/20 12:13:12;;;;;;;6.13;4.63;;;28.40;52.00;;;;;;5020319;28;20378;-88
2023/08/20 12:15:39;;;;;;;6.03;4.43;;;28.50;51.10;;;;;;5021975;28;20057;-87
2023/08/20 12:18:08;;;;;;;8.55;4.55;;;28.50;50.50;;;;;;5021514;28;20049;-87
2023/08/20 12:20:36;;;;;;;5.03;4.05;;;28.50;49.40;;;;;;5022122;28;20500;-88
2023/08/20 12:23:07;;;;;;;5.18;4.00;;;28.60;49.30;;;;;;5021200;28;20059;-87
2023/08/20 12:25:37;;;;;;;4.85;3.72;;;28.60;48.70;;;;;;5022916;28;20041;-87
2023/08/20 12:28:05;;;;;;;4.70;3.58;;;28.70;48.90;;;;;;5020625;28;20056;-87
2023/08/20 12:30:35;;;;;;;5.88;4.35;;;28.70;49.30;;;;;;5021875;28;20426;-89
2023/08/20 12:33:03;;;;;;;6.38;4.43;;;28.80;48.20;;;;;;5020187;28;20049;-89
2023/08/20 12:35:30;;;;;;;6.55;5.03;;;28.80;48.00;;;;;;5022141;28;20048;-87
2023/08/20 12:37:59;;;;;;;5.22;4.22;;;28.90;48.80;;;;;;5022840;28;20049;-87
2023/08/20 12:40:29;;;;;;;5.93;4.40;;;28.90;48.90;;;;;;5020598;28;20045;-87
2023/08/20 12:42:57;;;;;;;4.93;4.07;;;28.90;48.80;;;;;;5019498;28;20060;-86
2023/08/20 12:45:24;;;;;;;6.25;3.97;;;29.00;49.30;;;;;;5021880;28;20057;-88
2023/08/20 12:47:51;;;;;;;8.55;6.72;;;29.00;49.40;;;;;;5019771;28;20587;-88
2023/08/20 12:50:19;;;;;;;11.45;7.00;;;29.10;50.00;;;;;;5020472;28;20052;-87